Time;durP1;ratioP1;P1;durP2;ratioP2;P2;SDS_P1;SDS_P2;PMS_P1;PMS_P2;Temp;Humidity;BMP_temperature;BMP_pressure;BME280_temperature;BME280_humidity;BME280_pressure;Samples;Min_cycle;Max_cycle;Signal;HPM_P1;HPM_P2
2023/12/03 00:00:00;;;;;;;32.03;19.05;;;1.70;1.00;;;;;;5055557;28;20453;-88
2023/12/03 00:02:25;;;;;;;37.85;19.75;;;1.70;36.40;;;;;;5057056;28;20182;-87
2023/12/03 00:04:53;;;;;;;34.13;16.07;;;1.70;99.90;;;;;;5054819;28;20213;-87
2023/12/03 00:07:20;;;;;;;37.03;18.48;;;1.80;99.90;;;;;;5037905;28;20202;-87
2023/12/03 00:09:46;;;;;;;34.33;17.85;;;1.80;1.00;;;;;;5051681;28;20190;-88
2023/12/03 00:12:12;;;;;;;35.83;20.10;;;1.90;1.00;;;;;;5056430;28;20170;-87
2023/12/03 00:14:37;;;;;;;33.23;17.13;;;1.90;1.00;;;;;;5050604;28;20205;-87
2023/12/03 00:17:03;;;;;;;35.43;17.57;;;1.90;1.00;;;;;;5053988;28;20190;-87
2023/12/03 00:19:29;;;;;;;26.52;16.35;;;1.90;99.90;;;;;;5027702;28;20232;-87
2023/12/03 00:21:55;;;;;;;33.73;16.50;;;1.90;99.90;;;;;;5037414;28;20254;-86
2023/12/03 00:24:20;;;;;;;32.80;17.57;;;1.90;1.00;;;;;;5045377;28;20279;-87
2023/12/03 00:26:46;;;;;;;36.83;18.50;;;1.90;1.00;;;;;;5047125;28;20182;-87
2023/12/03 00:29:12;;;;;;;35.10;18.50;;;1.90;1.00;;;;;;5047683;28;20221;-87
2023/12/03 00:31:38;;;;;;;33.58;18.48;;;1.90;99.90;;;;;;5036719;28;21061;-86
2023/12/03 00:34:04;;;;;;;31.50;16.07;;;1.90;1.00;;;;;;5050485;28;20186;-87
2023/12/03 00:36:30;;;;;;;36.23;18.60;;;1.90;1.00;;;;;;5047377;28;20445;-87
2023/12/03 00:38:56;;;;;;;31.57;18.50;;;1.90;1.00;;;;;;5045932;28;20466;-89
2023/12/03 00:41:22;;;;;;;35.53;17.05;;;1.90;1.00;;;;;;5048612;28;20182;-87
2023/12/03 00:43:48;;;;;;;32.17;17.08;;;1.90;99.90;;;;;;5048618;28;20252;-87
2023/12/03 00:46:18;;;;;;;36.22;17.80;;;1.90;99.90;;;;;;5051904;28;20206;-88
2023/12/03 00:48:44;;;;;;;33.50;18.00;;;1.90;15.30;;;;;;5052652;28;20207;-86
2023/12/03 00:51:10;;;;;;;31.90;17.13;;;1.90;1.00;;;;;;5047834;28;20660;-87
2023/12/03 00:53:35;;;;;;;33.80;19.27;;;1.80;99.90;;;;;;5045148;28;20198;-86
2023/12/03 00:56:01;;;;;;;30.20;16.60;;;1.70;99.90;;;;;;5034573;28;20197;-87
2023/12/03 00:58:26;;;;;;;33.13;17.40;;;1.60;1.00;;;;;;5042527;28;20221;-86
2023/12/03 01:00:52;;;;;;;34.27;16.97;;;1.50;1.00;;;;;;5043513;28;20216;-84
2023/12/03 01:03:17;;;;;;;38.33;16.63;;;1.50;99.90;;;;;;5044027;28;20198;-87
2023/12/03 01:05:43;;;;;;;36.40;16.60;;;1.40;99.90;;;;;;5047694;28;22761;-86
2023/12/03 01:08:08;;;;;;;35.60;17.20;;;1.30;1.00;;;;;;5042341;28;20201;-86
2023/12/03 01:10:34;;;;;;;33.33;17.63;;;1.30;99.90;;;;;;5034243;28;20186;-84
2023/12/03 01:12:59;;;;;;;39.80;18.20;;;1.30;1.00;;;;;;5043170;28;20190;-86
2023/12/03 01:15:25;;;;;;;32.90;17.17;;;1.30;1.00;;;;;;5031217;28;20774;-86
2023/12/03 01:17:50;;;;;;;33.67;18.23;;;1.30;99.90;;;;;;5043999;28;20214;-86
2023/12/03 01:20:16;;;;;;;37.10;15.57;;;1.20;14.90;;;;;;5040523;28;20185;-88
2023/12/03 01:22:42;;;;;;;33.67;17.07;;;1.20;99.90;;;;;;5032804;28;20194;-85
2023/12/03 01:25:07;;;;;;;35.50;16.97;;;1.30;99.90;;;;;;5034826;28;20210;-86
2023/12/03 01:27:33;;;;;;;34.20;17.93;;;1.30;99.90;;;;;;5047758;28;20315;-87
2023/12/03 01:29:58;;;;;;;29.47;15.57;;;1.30;99.90;;;;;;5033881;28;20433;-87
2023/12/03 01:32:24;;;;;;;32.87;17.17;;;1.30;99.90;;;;;;5044559;28;20660;-87
2023/12/03 01:34:50;;;;;;;32.67;16.10;;;1.30;99.90;;;;;;5029376;28;20184;-85
2023/12/03 01:37:15;;;;;;;33.03;16.53;;;1.30;99.90;;;;;;5035195;28;20213;-86
2023/12/03 01:39:41;;;;;;;33.20;17.03;;;1.30;99.90;;;;;;5047945;28;20182;-86
2023/12/03 01:42:06;;;;;;;34.67;19.13;;;1.30;1.00;;;;;;5049457;28;20834;-87
2023/12/03 01:44:32;;;;;;;32.73;16.63;;;1.30;1.00;;;;;;5045800;28;20193;-85
2023/12/03 01:46:59;;;;;;;33.80;17.20;;;1.30;1.00;;;;;;5043026;28;20250;-87
2023/12/03 01:49:25;;;;;;;29.50;15.45;;;1.30;99.60;;;;;;5028592;28;20570;-86
2023/12/03 01:51:50;;;;;;;33.40;20.00;;;1.30;99.90;;;;;;5035317;28;20189;-85
2023/12/03 01:54:16;;;;;;;37.53;17.53;;;1.20;99.90;;;;;;5029716;28;20440;-84
2023/12/03 01:56:42;;;;;;;35.70;18.40;;;1.20;99.90;;;;;;5047381;28;20182;-86
2023/12/03 01:59:07;;;;;;;37.03;16.60;;;1.10;99.90;;;;;;5045838;28;20685;-86
2023/12/03 02:01:33;;;;;;;40.43;18.57;;;1.10;1.00;;;;;;5043556;28;21150;-87
2023/12/03 02:03:58;;;;;;;35.17;17.10;;;1.00;1.00;;;;;;5031233;28;20193;-87
2023/12/03 02:06:24;;;;;;;30.97;16.73;;;1.00;1.00;;;;;;5036073;28;20229;-86
2023/12/03 02:08:51;;;;;;;35.80;17.40;;;1.00;1.00;;;;;;5032353;28;20262;-85
2023/12/03 02:11:17;;;;;;;38.45;18.35;;;0.90;64.70;;;;;;5047354;28;20202;-87
2023/12/03 02:13:43;;;;;;;31.13;15.77;;;0.90;99.90;;;;;;5034449;28;20190;-89
2023/12/03 02:16:09;;;;;;;38.28;16.98;;;0.80;99.90;;;;;;5046557;28;20186;-88
2023/12/03 02:18:35;;;;;;;31.00;17.10;;;0.80;99.90;;;;;;5048082;28;20206;-86
2023/12/03 02:21:01;;;;;;;35.28;17.27;;;0.80;99.90;;;;;;5033910;28;20444;-86
2023/12/03 02:23:31;;;;;;;33.15;15.95;;;0.80;99.90;;;;;;5051574;28;20194;-87
2023/12/03 02:25:57;;;;;;;40.28;18.88;;;0.70;99.90;;;;;;5058566;28;20284;-87
2023/12/03 02:28:23;;;;;;;41.83;16.40;;;0.70;99.90;;;;;;5033747;28;20213;-87
2023/12/03 02:30:48;;;;;;;33.73;15.93;;;0.70;99.90;;;;;;5038275;28;20654;-85
2023/12/03 02:33:14;;;;;;;33.70;15.40;;;0.70;99.90;;;;;;5051965;28;20268;-87
2023/12/03 02:35:39;;;;;;;33.27;15.50;;;0.70;99.90;;;;;;5053519;28;20228;-88
2023/12/03 02:38:05;;;;;;;35.57;16.07;;;0.60;99.90;;;;;;5036881;28;20738;-88
2023/12/03 02:40:35;;;;;;;31.37;14.90;;;0.70;99.90;;;;;;5053236;28;20190;-87
2023/12/03 02:43:00;;;;;;;39.80;18.88;;;0.70;99.90;;;;;;5038516;28;20185;-87
2023/12/03 02:45:26;;;;;;;37.07;17.73;;;0.70;99.90;;;;;;5054679;28;20206;-88
2023/12/03 02:47:51;;;;;;;31.03;15.80;;;0.80;1.00;;;;;;5053131;28;20198;-87
2023/12/03 02:50:17;;;;;;;34.10;16.60;;;0.90;1.00;;;;;;5049692;28;20712;-87
2023/12/03 02:52:43;;;;;;;32.50;16.80;;;0.90;1.00;;;;;;5031381;28;20262;-87
2023/12/03 02:55:08;;;;;;;34.53;16.40;;;1.00;1.00;;;;;;5049033;28;20186;-88
2023/12/03 02:57:37;;;;;;;36.50;16.33;;;1.00;1.00;;;;;;5051620;28;20217;-87
2023/12/03 03:00:04;;;;;;;33.70;16.70;;;1.10;99.90;;;;;;5049770;28;20448;-87
2023/12/03 03:02:31;;;;;;;28.58;14.35;;;1.10;99.90;;;;;;5050415;28;20790;-88
2023/12/03 03:04:57;;;;;;;32.85;15.73;;;1.20;99.90;;;;;;5050306;28;20218;-89
2023/12/03 03:07:22;;;;;;;32.50;16.83;;;1.20;99.90;;;;;;5047426;28;20202;-86
2023/12/03 03:09:48;;;;;;;28.73;16.00;;;1.30;99.90;;;;;;5047910;28;20276;-87
2023/12/03 03:12:13;;;;;;;30.93;14.50;;;1.30;99.90;;;;;;5050239;28;20210;-87
2023/12/03 03:14:39;;;;;;;29.57;15.10;;;1.40;99.90;;;;;;5036201;28;20213;-88
2023/12/03 03:17:04;;;;;;;31.33;16.73;;;1.40;99.90;;;;;;5048626;28;20582;-87
2023/12/03 03:19:30;;;;;;;30.23;14.57;;;1.40;99.90;;;;;;5047564;28;20210;-87
2023/12/03 03:21:55;;;;;;;30.43;16.00;;;1.40;99.90;;;;;;5029884;28;20198;-89
2023/12/03 03:24:21;;;;;;;30.80;14.90;;;1.50;99.90;;;;;;5048317;28;20247;-87
2023/12/03 03:26:46;;;;;;;33.57;16.17;;;1.50;99.90;;;;;;5051000;28;20182;-87
2023/12/03 03:29:12;;;;;;;32.73;14.77;;;1.50;99.90;;;;;;5047447;28;20226;-88
2023/12/03 03:31:37;;;;;;;29.90;14.40;;;1.50;99.90;;;;;;5050313;28;20182;-89
2023/12/03 03:34:03;;;;;;;22.40;12.77;;;1.60;99.90;;;;;;5032497;28;20185;-87
2023/12/03 03:36:28;;;;;;;26.90;13.90;;;1.60;99.90;;;;;;5052803;28;20189;-87
2023/12/03 03:38:54;;;;;;;28.33;14.63;;;1.60;99.90;;;;;;5048376;28;20222;-87
2023/12/03 03:41:20;;;;;;;26.00;13.33;;;1.60;99.90;;;;;;5049197;28;20251;-88
2023/12/03 03:43:45;;;;;;;26.37;14.40;;;1.70;99.90;;;;;;5053101;28;20194;-89
2023/12/03 03:46:11;;;;;;;28.83;13.30;;;1.70;99.90;;;;;;5047836;28;20226;-88
2023/12/03 03:48:37;;;;;;;27.50;12.80;;;1.70;99.90;;;;;;5034307;28;20206;-86
2023/12/03 03:51:05;;;;;;;26.47;13.80;;;1.70;97.90;;;;;;5049457;28;20468;-88
2023/12/03 03:53:30;;;;;;;22.90;13.00;;;1.70;49.00;;;;;;5051570;28;20182;-89
2023/12/03 03:55:56;;;;;;;22.43;12.90;;;1.70;22.60;;;;;;5041783;28;20235;-87
2023/12/03 03:58:21;;;;;;;25.40;12.97;;;1.80;1.00;;;;;;5050745;28;20589;-85
2023/12/03 04:00:47;;;;;;;27.47;13.20;;;1.80;1.00;;;;;;5045699;28;20191;-86
2023/12/03 04:03:12;;;;;;;25.93;13.07;;;1.80;1.00;;;;;;5048021;28;20189;-88
2023/12/03 04:05:38;;;;;;;24.80;14.10;;;1.90;1.00;;;;;;5050676;28;20209;-85
2023/12/03 04:08:03;;;;;;;24.60;13.30;;;1.90;1.00;;;;;;5047294;28;20206;-86
2023/12/03 04:10:29;;;;;;;28.60;14.20;;;1.90;1.00;;;;;;5036566;28;20649;-86
2023/12/03 04:12:55;;;;;;;25.07;13.03;;;1.90;1.00;;;;;;5059386;28;20232;-85
2023/12/03 04:15:20;;;;;;;24.53;14.00;;;1.90;1.00;;;;;;5035784;28;20196;-86
2023/12/03 04:17:46;;;;;;;25.70;13.00;;;2.00;1.00;;;;;;5049508;28;20961;-86
2023/12/03 04:20:11;;;;;;;28.10;14.23;;;2.00;1.00;;;;;;5042888;28;20661;-86
2023/12/03 04:22:37;;;;;;;22.80;12.50;;;2.00;99.90;;;;;;5051259;28;20192;-88
2023/12/03 04:25:03;;;;;;;27.43;13.37;;;2.00;99.90;;;;;;5043702;28;20292;-85
2023/12/03 04:27:29;;;;;;;25.95;13.52;;;2.00;99.90;;;;;;5044326;28;20286;-86
2023/12/03 04:29:54;;;;;;;22.57;12.30;;;2.00;99.90;;;;;;5048348;28;20484;-86
2023/12/03 04:32:20;;;;;;;24.20;12.50;;;2.00;99.90;;;;;;5048135;28;20239;-86
2023/12/03 04:34:45;;;;;;;21.90;11.67;;;2.00;99.90;;;;;;5043436;28;24055;-87
2023/12/03 04:37:11;;;;;;;25.73;12.07;;;1.90;68.60;;;;;;5034752;28;20202;-86
2023/12/03 04:39:36;;;;;;;23.00;12.53;;;1.90;1.00;;;;;;5045401;28;20568;-86
2023/12/03 04:42:02;;;;;;;21.40;12.53;;;1.80;1.00;;;;;;5043679;28;20210;-86
2023/12/03 04:44:30;;;;;;;24.90;12.33;;;1.70;1.00;;;;;;5035620;28;20183;-85
2023/12/03 04:46:56;;;;;;;21.20;12.38;;;1.60;1.00;;;;;;5042098;28;20190;-85
2023/12/03 04:49:21;;;;;;;28.17;14.17;;;1.60;42.40;;;;;;5027187;28;20182;-86
2023/12/03 04:51:47;;;;;;;24.40;12.07;;;1.50;99.90;;;;;;5046047;28;20190;-85
2023/12/03 04:54:12;;;;;;;29.30;12.67;;;1.40;99.90;;;;;;5043388;28;20240;-86
2023/12/03 04:56:38;;;;;;;25.57;13.63;;;1.30;99.90;;;;;;5033272;28;20189;-86
2023/12/03 04:59:04;;;;;;;18.90;11.83;;;1.30;99.90;;;;;;5046151;28;20210;-85
2023/12/03 05:01:30;;;;;;;26.55;13.32;;;1.20;1.00;;;;;;5029863;28;20186;-85
2023/12/03 05:03:56;;;;;;;21.90;12.83;;;1.20;1.00;;;;;;5029485;28;20197;-84
2023/12/03 05:06:21;;;;;;;23.23;11.87;;;1.10;1.00;;;;;;5046623;28;20476;-87
2023/12/03 05:08:47;;;;;;;28.57;12.70;;;1.10;1.00;;;;;;5034186;28;20210;-85
2023/12/03 05:11:12;;;;;;;26.80;13.50;;;1.00;1.00;;;;;;5048422;28;20328;-86
2023/12/03 05:13:38;;;;;;;21.90;12.20;;;1.00;51.10;;;;;;5033565;28;20188;-86
2023/12/03 05:16:07;;;;;;;26.73;11.67;;;1.00;99.90;;;;;;5044643;28;20604;-87
2023/12/03 05:18:32;;;;;;;24.05;12.57;;;1.00;99.90;;;;;;5033410;28;20217;-86
2023/12/03 05:20:58;;;;;;;26.30;13.00;;;1.10;99.90;;;;;;5042156;28;20645;-85
2023/12/03 05:23:24;;;;;;;22.50;11.67;;;1.10;99.90;;;;;;5046835;28;20651;-87
2023/12/03 05:25:50;;;;;;;30.17;14.55;;;1.20;99.90;;;;;;5043864;28;20206;-85
2023/12/03 05:28:16;;;;;;;23.02;12.50;;;1.20;82.30;;;;;;5049269;28;20220;-86
2023/12/03 05:30:42;;;;;;;24.97;14.13;;;1.20;22.00;;;;;;5043052;28;20258;-86
2023/12/03 05:33:07;;;;;;;26.97;12.83;;;1.20;13.60;;;;;;5043878;28;20270;-86
2023/12/03 05:35:33;;;;;;;26.03;13.07;;;1.20;31.70;;;;;;5048001;28;20278;-87
2023/12/03 05:37:59;;;;;;;26.40;13.87;;;1.20;18.10;;;;;;5048379;28;20277;-87
2023/12/03 05:40:24;;;;;;;26.23;13.50;;;1.20;1.00;;;;;;5033317;28;20291;-88
2023/12/03 05:42:50;;;;;;;23.53;12.50;;;1.20;1.00;;;;;;5045577;28;20590;-86
2023/12/03 05:45:16;;;;;;;25.33;14.20;;;1.20;1.00;;;;;;5040710;28;20274;-87
2023/12/03 05:47:41;;;;;;;24.53;12.20;;;1.10;1.00;;;;;;5044985;28;20292;-87
2023/12/03 05:50:07;;;;;;;24.87;11.90;;;1.10;1.00;;;;;;5056015;28;20190;-89
2023/12/03 05:52:33;;;;;;;22.33;12.50;;;1.10;1.00;;;;;;5052743;28;20187;-85
2023/12/03 05:54:58;;;;;;;22.33;12.47;;;1.10;1.00;;;;;;5055377;28;20194;-87
2023/12/03 05:57:24;;;;;;;21.47;11.67;;;1.10;1.00;;;;;;5055666;28;20209;-86
2023/12/03 05:59:50;;;;;;;27.40;14.60;;;1.00;1.00;;;;;;5052621;28;20695;-86
2023/12/03 06:02:16;;;;;;;23.50;11.90;;;1.00;1.00;;;;;;5052913;28;20261;-86
2023/12/03 06:04:42;;;;;;;25.47;12.50;;;1.00;1.00;;;;;;5056964;28;20268;-88
2023/12/03 06:07:07;;;;;;;21.93;12.50;;;0.90;1.00;;;;;;5052872;28;21051;-87
2023/12/03 06:09:33;;;;;;;26.60;11.93;;;0.90;1.00;;;;;;5060343;28;20213;-86
2023/12/03 06:11:59;;;;;;;25.50;12.40;;;0.90;1.00;;;;;;5057943;28;20182;-87
2023/12/03 06:14:26;;;;;;;22.93;12.27;;;0.90;1.00;;;;;;5054501;28;20264;-88
2023/12/03 06:16:52;;;;;;;23.25;12.13;;;0.90;1.00;;;;;;5060502;28;20463;-86
2023/12/03 06:19:17;;;;;;;23.80;11.90;;;0.90;1.00;;;;;;5055270;28;20190;-87
2023/12/03 06:21:43;;;;;;;26.10;12.47;;;0.90;1.00;;;;;;5063667;28;20790;-87
2023/12/03 06:24:08;;;;;;;20.90;12.97;;;1.00;1.00;;;;;;5054654;28;20178;-88
2023/12/03 06:26:34;;;;;;;25.70;14.27;;;1.00;1.00;;;;;;5052611;28;20305;-86
2023/12/03 06:29:00;;;;;;;50.40;27.53;;;1.00;1.00;;;;;;5062192;28;20201;-87
2023/12/03 06:31:26;;;;;;;31.35;17.40;;;1.00;1.00;;;;;;5064019;28;20197;-86
2023/12/03 06:33:52;;;;;;;24.95;12.90;;;1.00;1.00;;;;;;5054488;28;20253;-87
2023/12/03 06:36:18;;;;;;;26.33;12.53;;;1.00;1.00;;;;;;5040884;28;20213;-87
2023/12/03 06:38:43;;;;;;;26.40;14.23;;;1.00;1.00;;;;;;5036801;28;20426;-88
2023/12/03 06:41:09;;;;;;;29.57;13.63;;;1.10;1.00;;;;;;5056427;28;20182;-86
2023/12/03 06:43:34;;;;;;;25.70;12.37;;;1.10;1.00;;;;;;5047073;28;20190;-88
2023/12/03 06:46:00;;;;;;;26.47;13.77;;;1.10;1.00;;;;;;5058501;28;20363;-88
2023/12/03 06:48:25;;;;;;;24.60;12.47;;;1.10;1.00;;;;;;5055756;28;20206;-87
2023/12/03 06:50:51;;;;;;;22.00;11.67;;;1.20;1.00;;;;;;5054402;28;20186;-86
2023/12/03 06:53:17;;;;;;;25.65;12.20;;;1.30;1.00;;;;;;5055694;28;20186;-89
2023/12/03 06:55:43;;;;;;;22.47;12.80;;;1.30;1.00;;;;;;5053135;28;20248;-85
2023/12/03 06:58:08;;;;;;;18.17;11.50;;;1.40;1.00;;;;;;5054636;28;20210;-87
2023/12/03 07:00:34;;;;;;;22.17;12.40;;;1.40;99.90;;;;;;5052820;28;20331;-85
2023/12/03 07:02:59;;;;;;;22.37;11.90;;;1.40;99.90;;;;;;5041869;28;20565;-84
2023/12/03 07:05:25;;;;;;;22.77;11.13;;;1.50;1.00;;;;;;5036481;28;20813;-85
2023/12/03 07:07:51;;;;;;;23.77;11.27;;;1.50;1.00;;;;;;5053359;28;20201;-86
2023/12/03 07:10:17;;;;;;;26.42;12.57;;;1.50;1.00;;;;;;5057577;28;20182;-87
2023/12/03 07:12:43;;;;;;;19.13;11.18;;;1.60;1.00;;;;;;5045422;28;20618;-86
2023/12/03 07:15:09;;;;;;;22.60;12.43;;;1.60;99.90;;;;;;5038765;28;20182;-86
2023/12/03 07:17:35;;;;;;;23.13;13.20;;;1.70;99.90;;;;;;5049008;28;20471;-85
2023/12/03 07:20:00;;;;;;;19.23;11.37;;;1.80;99.90;;;;;;5045268;28;20482;-86
2023/12/03 07:22:26;;;;;;;24.40;12.00;;;1.80;99.90;;;;;;5035343;28;20202;-87
2023/12/03 07:24:52;;;;;;;22.27;11.67;;;1.80;99.90;;;;;;5056679;28;20254;-86
2023/12/03 07:27:18;;;;;;;23.85;11.93;;;1.80;99.90;;;;;;5051689;28;20241;-87
2023/12/03 07:29:44;;;;;;;21.30;12.30;;;1.90;1.00;;;;;;5030647;28;20193;-86
2023/12/03 07:32:09;;;;;;;21.40;11.20;;;1.90;1.00;;;;;;5047190;28;20440;-86
2023/12/03 07:34:35;;;;;;;20.50;12.00;;;1.90;99.90;;;;;;5051302;28;20190;-88
2023/12/03 07:37:02;;;;;;;17.20;10.73;;;1.90;99.90;;;;;;5058378;28;20220;-85
2023/12/03 07:39:28;;;;;;;23.05;13.20;;;2.00;1.00;;;;;;5047563;28;20186;-88
2023/12/03 07:41:54;;;;;;;27.77;12.60;;;2.00;1.00;;;;;;5048028;28;20557;-82
2023/12/03 07:44:21;;;;;;;25.27;12.23;;;2.10;99.90;;;;;;5051082;28;20185;-84
2023/12/03 07:46:46;;;;;;;23.05;13.07;;;2.10;99.90;;;;;;5053058;28;20205;-85
2023/12/03 07:49:12;;;;;;;19.57;11.27;;;2.20;1.00;;;;;;5057422;28;20671;-85
2023/12/03 07:51:38;;;;;;;21.80;11.40;;;2.30;99.90;;;;;;5051641;28;20437;-86
2023/12/03 07:54:03;;;;;;;21.50;11.60;;;2.40;99.90;;;;;;5031817;28;20173;-86
2023/12/03 07:56:39;;;;;;;21.03;12.20;;;2.50;1.00;;;;;;5032956;28;20917;-86
2023/12/03 07:59:11;;;;;;;23.08;11.82;;;2.60;99.90;;;;;;5044670;28;20217;-84
2023/12/03 08:01:36;;;;;;;24.90;10.95;;;2.70;99.90;;;;;;5051235;28;20182;-87
2023/12/03 08:04:05;;;;;;;22.40;12.63;;;2.90;99.90;;;;;;5040732;28;20185;-86
2023/12/03 08:06:31;;;;;;;20.52;10.55;;;3.00;1.00;;;;;;5042654;28;20205;-85
2023/12/03 08:09:00;;;;;;;19.40;12.23;;;3.10;1.00;;;;;;5033499;28;20589;-85
2023/12/03 08:11:26;;;;;;;25.23;11.18;;;3.20;1.00;;;;;;5021546;28;20265;-87
2023/12/03 08:13:55;;;;;;;18.13;11.10;;;3.40;99.90;;;;;;5041513;28;20270;-86
2023/12/03 08:16:21;;;;;;;21.48;10.77;;;3.60;99.90;;;;;;5047814;28;20436;-86
2023/12/03 08:18:47;;;;;;;18.97;10.60;;;3.90;99.90;;;;;;5028327;28;20814;-86
2023/12/03 08:21:13;;;;;;;18.42;11.18;;;4.50;96.90;;;;;;5022727;28;20815;-86
2023/12/03 08:23:41;;;;;;;20.50;10.47;;;6.10;1.00;;;;;;5046703;28;20581;-85
2023/12/03 08:26:07;;;;;;;15.80;10.67;;;7.40;1.00;;;;;;5043275;28;20478;-86
2023/12/03 08:28:33;;;;;;;18.23;11.07;;;8.20;1.00;;;;;;5028172;28;20547;-88
2023/12/03 08:30:59;;;;;;;16.30;10.53;;;8.60;99.90;;;;;;5046568;28;20525;-87
2023/12/03 08:33:24;;;;;;;20.00;11.27;;;8.90;99.90;;;;;;5031375;28;20723;-87
2023/12/03 08:35:50;;;;;;;18.00;11.67;;;9.40;99.90;;;;;;5044509;28;20444;-86
2023/12/03 08:38:15;;;;;;;16.40;10.57;;;9.90;99.90;;;;;;5044801;28;20252;-86
2023/12/03 08:40:41;;;;;;;16.70;10.67;;;10.40;99.90;;;;;;5044934;28;20557;-90
2023/12/03 08:43:07;;;;;;;17.40;11.57;;;10.30;99.90;;;;;;5046097;28;20639;-87
2023/12/03 08:45:33;;;;;;;19.93;11.77;;;10.00;99.90;;;;;;5046682;28;20237;-87
2023/12/03 08:48:00;;;;;;;16.13;10.27;;;9.60;99.90;;;;;;5039012;28;20471;-87
2023/12/03 08:50:28;;;;;;;21.40;11.50;;;9.30;99.90;;;;;;5046334;28;20474;-86
2023/12/03 08:52:54;;;;;;;16.73;10.57;;;9.00;99.90;;;;;;5034873;28;20497;-87
2023/12/03 08:55:20;;;;;;;18.20;10.67;;;8.60;99.90;;;;;;5026607;28;20432;-86
2023/12/03 08:57:45;;;;;;;19.50;10.97;;;8.20;99.90;;;;;;5029999;28;20909;-85
2023/12/03 09:00:13;;;;;;;19.77;11.60;;;7.90;99.90;;;;;;5024934;28;20311;-86
2023/12/03 09:02:39;;;;;;;18.47;11.37;;;7.50;99.90;;;;;;5048216;28;20204;-85
2023/12/03 09:05:05;;;;;;;18.05;10.75;;;7.20;99.90;;;;;;5042028;28;22092;-85
2023/12/03 09:07:31;;;;;;;18.27;11.45;;;6.90;99.90;;;;;;5043681;28;20206;-86
2023/12/03 09:09:59;;;;;;;16.07;9.90;;;6.70;99.90;;;;;;5029826;28;20193;-86
2023/12/03 09:12:24;;;;;;;19.55;11.55;;;6.40;99.90;;;;;;5042160;28;20779;-85
2023/12/03 09:14:50;;;;;;;19.77;11.03;;;6.20;99.90;;;;;;5046686;28;20262;-86
2023/12/03 09:17:15;;;;;;;16.87;10.03;;;6.00;99.90;;;;;;5045191;28;20324;-86
2023/12/03 09:19:41;;;;;;;17.17;10.07;;;5.90;99.90;;;;;;5049358;28;20224;-87
2023/12/03 09:22:06;;;;;;;16.07;10.40;;;5.80;99.90;;;;;;5049312;28;20691;-87
2023/12/03 09:24:32;;;;;;;23.00;11.00;;;5.70;99.90;;;;;;5041646;28;20178;-87
2023/12/03 09:27:00;;;;;;;22.50;11.07;;;5.70;99.90;;;;;;5042179;28;20192;-87
2023/12/03 09:29:26;;;;;;;18.75;11.35;;;5.70;99.90;;;;;;5040919;28;20190;-86
2023/12/03 09:31:55;;;;;;;18.47;10.40;;;5.70;99.90;;;;;;5051934;28;20182;-85
2023/12/03 09:34:32;;;;;;;17.90;11.38;;;5.80;99.90;;;;;;5037177;28;20206;-87
2023/12/03 09:37:04;;;;;;;21.98;10.90;;;5.80;99.90;;;;;;5053944;28;20166;-87
2023/12/03 09:39:35;;;;;;;16.90;10.75;;;5.80;99.90;;;;;;5036558;28;20190;-87
2023/12/03 09:42:02;;;;;;;16.98;10.15;;;5.90;99.90;;;;;;5037349;28;20174;-88
2023/12/03 09:44:53;;;;;;;14.55;9.68;;;6.00;99.90;;;;;;5037733;28;20209;-87
2023/12/03 09:47:29;;;;;;;19.95;11.25;;;6.10;99.90;;;;;;5036755;28;20202;-87
2023/12/03 09:49:56;;;;;;;20.35;11.57;;;6.20;99.90;;;;;;5043916;28;20174;-86
2023/12/03 09:52:24;;;;;;;17.27;10.18;;;6.20;99.90;;;;;;5056292;28;20177;-85
2023/12/03 09:54:51;;;;;;;19.60;11.63;;;6.20;99.90;;;;;;5059114;28;20181;-86
2023/12/03 09:57:18;;;;;;;17.98;10.65;;;6.30;99.90;;;;;;5059697;28;20194;-87
2023/12/03 09:59:50;;;;;;;19.20;10.57;;;6.30;99.90;;;;;;5041853;28;20190;-87
2023/12/03 10:02:34;;;;;;;26.02;13.77;;;6.30;99.90;;;;;;5042476;28;20186;-86
2023/12/03 10:05:00;;;;;;;20.83;11.65;;;6.30;99.90;;;;;;5041740;28;20255;-87
2023/12/03 10:07:29;;;;;;;21.97;12.20;;;6.40;99.90;;;;;;5050303;28;20206;-87
2023/12/03 10:10:20;;;;;;;24.25;15.15;;;6.40;99.90;;;;;;5035848;28;20188;-86
2023/12/03 10:12:56;;;;;;;17.63;10.30;;;6.50;99.90;;;;;;5039634;28;20257;-86
2023/12/03 10:15:22;;;;;;;21.17;12.20;;;6.60;99.90;;;;;;5046298;28;20204;-87
2023/12/03 10:17:51;;;;;;;16.10;10.60;;;6.70;99.90;;;;;;5042690;28;20281;-87
2023/12/03 10:20:21;;;;;;;27.15;16.10;;;6.80;99.90;;;;;;5040581;28;20182;-87
2023/12/03 10:22:47;;;;;;;35.87;25.30;;;6.90;99.90;;;;;;5058583;28;20174;-87
2023/12/03 10:25:44;;;;;;;16.00;10.77;;;7.10;99.90;;;;;;5053246;28;20468;-86
2023/12/03 10:28:15;;;;;;;20.33;12.70;;;7.20;99.90;;;;;;4994396;28;20448;-87
2023/12/03 10:30:41;;;;;;;17.27;10.30;;;7.20;99.90;;;;;;5033259;28;20178;-87
2023/12/03 10:33:11;;;;;;;16.13;9.75;;;7.30;99.90;;;;;;5058828;28;20423;-87
2023/12/03 10:35:42;;;;;;;18.97;10.43;;;7.40;99.90;;;;;;5040746;28;20178;-87
2023/12/03 10:38:07;;;;;;;18.13;10.50;;;7.50;99.90;;;;;;5040042;28;20572;-87
2023/12/03 10:40:37;;;;;;;21.37;13.60;;;7.50;99.90;;;;;;5058183;28;21001;-87
2023/12/03 10:43:05;;;;;;;22.37;11.77;;;7.10;99.90;;;;;;5040389;28;20186;-86
2023/12/03 10:45:32;;;;;;;22.37;11.47;;;7.10;99.90;;;;;;5052723;28;20966;-88
2023/12/03 10:48:05;;;;;;;19.57;12.03;;;7.20;99.90;;;;;;5047171;28;20974;-87
2023/12/03 10:50:30;;;;;;;20.70;13.20;;;7.20;99.90;;;;;;5051299;28;20433;-87
2023/12/03 10:52:59;;;;;;;23.30;12.33;;;7.10;99.90;;;;;;5056440;28;20179;-87
2023/12/03 10:58:21;;;;;;;17.60;11.15;;;7.20;99.90;;;;;;5053121;28;20844;-89
2023/12/03 11:00:56;;;;;;;24.83;13.03;;;7.30;99.90;;;;;;5037072;28;20198;-90
2023/12/03 11:03:38;;;;;;;16.70;10.20;;;7.30;99.90;;;;;;5033342;28;20448;-90
2023/12/03 11:06:07;;;;;;;21.87;11.87;;;7.20;99.90;;;;;;5052779;28;20448;-91
2023/12/03 11:08:33;;;;;;;19.37;11.53;;;7.40;99.90;;;;;;5048845;28;20440;-92
2023/12/03 11:10:59;;;;;;;19.43;11.70;;;7.30;99.90;;;;;;5058156;28;20797;-91
2023/12/03 11:13:27;;;;;;;18.93;12.13;;;7.10;99.90;;;;;;5054316;28;20423;-88
2023/12/03 11:15:54;;;;;;;19.43;11.33;;;7.60;99.90;;;;;;5053586;28;20424;-88
2023/12/03 11:18:21;;;;;;;21.37;11.80;;;8.70;99.90;;;;;;5053408;28;20946;-88
2023/12/03 11:20:49;;;;;;;20.17;12.63;;;10.10;99.90;;;;;;5050974;28;20441;-88
2023/12/03 11:23:52;;;;;;;19.60;13.30;;;10.90;99.90;;;;;;5046673;28;20425;-87
2023/12/03 11:26:18;;;;;;;19.30;12.53;;;11.90;99.90;;;;;;5046554;28;20832;-88
2023/12/03 11:28:54;;;;;;;17.97;11.43;;;11.80;99.90;;;;;;5044524;28;20452;-89
2023/12/03 11:31:20;;;;;;;22.10;12.77;;;11.70;99.90;;;;;;5035052;28;20523;-87
2023/12/03 11:34:09;;;;;;;17.13;11.20;;;12.40;99.90;;;;;;5034092;28;20429;-88
2023/12/03 11:36:47;;;;;;;19.77;11.93;;;13.60;99.90;;;;;;5052605;28;20781;-87
2023/12/03 11:39:14;;;;;;;28.00;18.87;;;14.60;99.90;;;;;;5052640;28;20518;-88
2023/12/03 11:41:42;;;;;;;19.70;11.57;;;15.20;99.90;;;;;;5052191;28;20424;-88
2023/12/03 11:44:37;;;;;;;19.87;12.20;;;14.80;99.90;;;;;;5051764;28;20417;-88
2023/12/03 11:47:10;;;;;;;17.30;12.60;;;14.70;99.90;;;;;;5035796;28;20475;-87
2023/12/03 11:49:40;;;;;;;15.17;12.37;;;14.80;99.90;;;;;;5031579;28;20428;-88
2023/12/03 11:52:12;;;;;;;15.20;10.77;;;14.40;99.90;;;;;;5029973;28;20504;-88
2023/12/03 11:54:44;;;;;;;16.17;12.17;;;14.70;99.90;;;;;;5033551;28;20425;-87
2023/12/03 11:57:16;;;;;;;16.17;11.20;;;13.60;99.90;;;;;;5051911;28;20415;-87
2023/12/03 11:59:45;;;;;;;14.07;10.80;;;13.30;99.90;;;;;;5031909;28;20459;-88
2023/12/03 12:02:12;;;;;;;15.43;10.80;;;13.50;99.90;;;;;;5051066;28;20433;-88
2023/12/03 12:04:37;;;;;;;15.10;9.30;;;13.80;99.90;;;;;;5050763;28;20428;-87
2023/12/03 12:07:16;;;;;;;14.90;10.53;;;13.50;99.90;;;;;;5039568;28;20510;-87
2023/12/03 12:09:42;;;;;;;12.00;10.37;;;13.10;99.90;;;;;;5026622;28;20201;-88
2023/12/03 12:12:08;;;;;;;13.20;9.90;;;13.30;99.90;;;;;;5050995;28;20482;-87
2023/12/03 12:14:36;;;;;;;14.50;11.10;;;13.10;99.90;;;;;;5031423;28;21025;-88
2023/12/03 12:17:08;;;;;;;13.23;9.77;;;12.50;99.90;;;;;;5045782;28;20587;-87
2023/12/03 12:19:34;;;;;;;12.60;9.17;;;13.20;99.90;;;;;;5048543;28;20681;-89
2023/12/03 12:22:00;;;;;;;10.90;8.07;;;13.60;99.90;;;;;;5033408;28;20865;-88
2023/12/03 12:24:28;;;;;;;10.17;7.47;;;14.00;99.90;;;;;;5042054;28;20252;-87
2023/12/03 12:26:54;;;;;;;12.13;9.00;;;14.40;99.90;;;;;;5033091;28;20229;-89
2023/12/03 12:29:21;;;;;;;9.30;7.67;;;14.70;99.90;;;;;;5027959;28;20487;-87
2023/12/03 12:31:47;;;;;;;13.53;9.53;;;15.00;99.90;;;;;;5051792;28;20215;-86
2023/12/03 12:34:20;;;;;;;14.10;10.17;;;15.30;99.90;;;;;;5051609;28;20432;-86
2023/12/03 12:36:47;;;;;;;18.00;14.20;;;14.90;99.90;;;;;;5050686;28;20211;-87
2023/12/03 12:39:31;;;;;;;13.97;9.90;;;14.50;99.90;;;;;;5051816;28;20456;-86